Time;durP1;ratioP1;P1;durP2;ratioP2;P2;SDS_P1;SDS_P2;PMS_P1;PMS_P2;Temp;Humidity;BMP_temperature;BMP_pressure;BME280_temperature;BME280_humidity;BME280_pressure;Samples;Min_cycle;Max_cycle;Signal;HPM_P1;HPM_P2
2022/07/13 00:00:29;;;;;;;3.43;2.60;;;15.80;99.90;;;;;;5069071;28;20455;-66
2022/07/13 00:02:56;;;;;;;4.80;3.00;;;15.70;99.90;;;;;;5068956;28;20577;-68
2022/07/13 00:05:22;;;;;;;3.80;2.47;;;15.70;99.90;;;;;;5066349;28;20455;-67
2022/07/13 00:07:49;;;;;;;4.20;3.40;;;15.70;99.90;;;;;;5069692;28;20447;-68
2022/07/13 00:10:17;;;;;;;3.70;3.03;;;15.70;99.90;;;;;;5066621;28;20490;-68
2022/07/13 00:12:44;;;;;;;3.70;3.13;;;15.70;99.90;;;;;;5068602;28;20448;-67
2022/07/13 00:15:12;;;;;;;4.17;2.97;;;15.70;99.90;;;;;;5068758;28;20482;-67
2022/07/13 00:17:38;;;;;;;3.10;2.40;;;15.60;99.90;;;;;;5071947;28;20447;-67
2022/07/13 00:20:06;;;;;;;2.83;2.30;;;15.60;99.90;;;;;;5069471;28;20455;-67
2022/07/13 00:22:33;;;;;;;3.10;2.50;;;15.60;99.90;;;;;;5070049;28;20570;-66
2022/07/13 00:25:00;;;;;;;4.00;3.13;;;15.60;99.90;;;;;;5069855;28;20475;-66
2022/07/13 00:27:28;;;;;;;3.90;2.60;;;15.50;99.90;;;;;;5070011;28;20562;-67
2022/07/13 00:29:55;;;;;;;4.77;3.20;;;15.50;99.90;;;;;;5069462;28;20451;-67
2022/07/13 00:32:22;;;;;;;4.57;3.40;;;15.50;99.90;;;;;;5069787;28;20465;-68
2022/07/13 00:34:49;;;;;;;4.40;3.30;;;15.50;99.90;;;;;;5067035;28;20482;-68
2022/07/13 00:37:16;;;;;;;3.53;2.63;;;15.40;99.90;;;;;;5068628;28;20462;-67
2022/07/13 00:39:43;;;;;;;3.40;2.50;;;15.40;99.90;;;;;;5069729;28;20542;-68
2022/07/13 00:42:10;;;;;;;4.03;3.13;;;15.40;99.90;;;;;;5069647;28;20487;-67
2022/07/13 00:44:38;;;;;;;4.00;2.70;;;15.30;99.90;;;;;;5069788;28;20459;-68
2022/07/13 00:47:06;;;;;;;3.10;2.70;;;15.20;99.90;;;;;;5069821;28;20450;-68
2022/07/13 00:49:33;;;;;;;3.67;2.90;;;15.20;99.90;;;;;;5069300;28;20508;-69
2022/07/13 00:52:00;;;;;;;3.27;2.97;;;15.10;99.90;;;;;;5069616;28;20933;-67
2022/07/13 00:54:30;;;;;;;3.60;2.80;;;15.10;99.90;;;;;;5069906;28;20551;-67
2022/07/13 00:56:58;;;;;;;4.43;3.07;;;15.10;99.90;;;;;;5069897;28;20455;-68
2022/07/13 00:59:25;;;;;;;4.57;4.07;;;15.10;99.90;;;;;;5069884;28;20458;-67
2022/07/13 01:01:54;;;;;;;3.83;3.10;;;15.00;99.90;;;;;;5069660;28;21030;-67
2022/07/13 01:04:23;;;;;;;4.33;3.07;;;15.00;99.90;;;;;;5070347;28;20553;-67
2022/07/13 01:06:50;;;;;;;4.77;2.80;;;14.90;99.90;;;;;;5070302;28;20542;-68
2022/07/13 01:09:17;;;;;;;4.70;3.50;;;14.90;99.90;;;;;;5070125;28;20988;-66
2022/07/13 01:11:45;;;;;;;3.80;2.83;;;14.90;99.90;;;;;;5069760;28;20446;-67
2022/07/13 01:14:13;;;;;;;5.87;3.23;;;14.80;99.90;;;;;;5070205;28;20880;-66
2022/07/13 01:16:40;;;;;;;4.23;2.80;;;14.80;99.90;;;;;;5069904;28;20477;-66
2022/07/13 01:19:12;;;;;;;5.90;2.80;;;14.90;99.90;;;;;;5069878;28;20975;-67
2022/07/13 01:21:41;;;;;;;4.53;3.43;;;14.80;99.90;;;;;;5069289;28;21125;-69
2022/07/13 01:24:10;;;;;;;4.67;3.20;;;14.80;99.90;;;;;;5069485;28;20474;-68
2022/07/13 01:26:38;;;;;;;3.63;2.57;;;14.80;99.90;;;;;;5069539;28;20455;-68
2022/07/13 01:29:05;;;;;;;5.70;3.20;;;14.80;99.90;;;;;;5069430;28;20451;-69
2022/07/13 01:31:35;;;;;;;5.40;3.47;;;14.80;99.90;;;;;;5069542;28;21034;-66
2022/07/13 01:34:03;;;;;;;3.93;2.50;;;14.90;99.90;;;;;;5069403;28;21106;-68
2022/07/13 01:36:30;;;;;;;3.17;2.67;;;14.80;99.90;;;;;;5069482;28;20951;-67
2022/07/13 01:38:58;;;;;;;4.33;3.30;;;14.90;99.90;;;;;;5069633;28;20450;-66
2022/07/13 01:41:28;;;;;;;3.50;2.70;;;14.90;99.90;;;;;;5068837;28;20454;-66
2022/07/13 01:43:56;;;;;;;3.50;3.00;;;15.10;99.90;;;;;;5069657;28;20463;-70
2022/07/13 01:46:23;;;;;;;4.00;2.80;;;15.20;99.90;;;;;;5069496;28;20451;-67
2022/07/13 01:48:50;;;;;;;5.23;2.80;;;15.30;99.90;;;;;;5069380;28;20450;-66
2022/07/13 01:51:17;;;;;;;5.13;2.67;;;15.40;99.90;;;;;;5068984;28;20443;-66
2022/07/13 01:53:44;;;;;;;3.90;3.03;;;15.40;99.90;;;;;;5069047;28;20494;-69
2022/07/13 01:56:11;;;;;;;3.90;3.07;;;15.40;99.90;;;;;;5066813;28;20482;-70
2022/07/13 01:58:39;;;;;;;3.53;2.60;;;15.50;99.90;;;;;;5069233;28;20451;-67
2022/07/13 02:01:06;;;;;;;4.80;2.90;;;15.50;99.90;;;;;;5071100;28;20440;-67
2022/07/13 02:03:33;;;;;;;3.47;2.70;;;15.50;99.90;;;;;;5073101;28;20501;-66
2022/07/13 02:06:00;;;;;;;3.77;2.90;;;15.50;99.90;;;;;;5069013;28;20455;-66
2022/07/13 02:08:27;;;;;;;5.60;2.97;;;15.50;99.90;;;;;;5072366;28;20474;-70
2022/07/13 02:10:54;;;;;;;3.67;3.27;;;15.60;99.90;;;;;;5072136;28;20443;-69
2022/07/13 02:13:22;;;;;;;4.00;2.60;;;15.60;99.90;;;;;;5072692;28;20455;-66
2022/07/13 02:15:50;;;;;;;4.50;3.37;;;15.60;99.90;;;;;;5072600;28;20443;-67
2022/07/13 02:18:18;;;;;;;3.57;2.83;;;15.70;99.90;;;;;;5072625;28;20453;-67
2022/07/13 02:20:44;;;;;;;3.83;3.00;;;15.70;99.90;;;;;;5072242;28;20538;-67
2022/07/13 02:23:11;;;;;;;3.47;3.07;;;15.70;99.90;;;;;;5072283;28;20494;-67
2022/07/13 02:25:38;;;;;;;4.93;3.20;;;15.60;99.90;;;;;;5072232;28;20959;-67
2022/07/13 02:28:06;;;;;;;3.50;2.97;;;15.60;99.90;;;;;;5072531;28;20458;-67
2022/07/13 02:30:34;;;;;;;4.40;3.37;;;15.60;99.90;;;;;;5072717;28;20508;-67
2022/07/13 02:33:02;;;;;;;3.70;3.20;;;15.60;99.90;;;;;;5072355;28;20473;-67
2022/07/13 02:35:29;;;;;;;3.70;2.80;;;15.60;99.90;;;;;;5072620;28;20454;-68
2022/07/13 02:37:56;;;;;;;3.07;2.43;;;15.70;99.90;;;;;;5072674;28;20455;-67
2022/07/13 02:40:23;;;;;;;3.27;2.60;;;15.70;99.90;;;;;;5071840;28;20945;-67
2022/07/13 02:42:50;;;;;;;3.57;2.40;;;15.80;99.90;;;;;;5072261;28;20479;-67
2022/07/13 02:45:17;;;;;;;3.63;2.37;;;15.80;99.90;;;;;;5072255;28;20448;-67
2022/07/13 02:47:44;;;;;;;2.73;2.37;;;15.80;99.90;;;;;;5072111;28;20817;-66
2022/07/13 02:50:12;;;;;;;2.80;2.13;;;15.80;99.90;;;;;;5071671;28;20443;-67
2022/07/13 02:52:39;;;;;;;3.13;2.50;;;15.80;99.90;;;;;;5072146;28;20446;-66
2022/07/13 02:55:06;;;;;;;3.63;2.60;;;15.60;99.90;;;;;;5071958;28;20467;-67
2022/07/13 02:57:33;;;;;;;3.37;2.47;;;15.50;99.90;;;;;;5072067;28;20824;-67
2022/07/13 03:00:00;;;;;;;3.40;2.50;;;15.60;99.90;;;;;;5071782;28;20451;-68
2022/07/13 03:02:27;;;;;;;4.30;2.33;;;15.60;99.90;;;;;;5071736;28;20475;-68
2022/07/13 03:04:53;;;;;;;3.63;2.40;;;15.60;99.90;;;;;;5071688;28;20471;-67
2022/07/13 03:07:22;;;;;;;3.13;2.40;;;15.50;99.90;;;;;;5071997;28;20449;-68
2022/07/13 03:09:49;;;;;;;8.40;3.23;;;15.40;99.90;;;;;;5071558;28;20483;-68
2022/07/13 03:12:16;;;;;;;4.27;2.40;;;15.30;99.90;;;;;;5071029;28;20519;-67
2022/07/13 03:14:42;;;;;;;2.77;2.33;;;15.30;99.90;;;;;;5071551;28;20459;-68
2022/07/13 03:17:09;;;;;;;3.60;2.77;;;15.20;99.90;;;;;;5071364;28;20937;-67
2022/07/13 03:19:36;;;;;;;3.90;2.40;;;15.20;99.90;;;;;;5071724;28;20823;-67
2022/07/13 03:22:04;;;;;;;2.80;2.20;;;15.30;99.90;;;;;;5071103;28;20483;-68
2022/07/13 03:24:32;;;;;;;2.80;2.50;;;15.30;99.90;;;;;;5071360;28;20467;-69
2022/07/13 03:27:00;;;;;;;5.17;2.67;;;15.30;99.90;;;;;;5071451;28;20473;-68
2022/07/13 03:29:27;;;;;;;4.10;2.70;;;15.30;99.90;;;;;;5071306;28;20469;-67
2022/07/13 03:31:54;;;;;;;2.90;2.30;;;15.40;99.90;;;;;;5071141;28;20471;-67
2022/07/13 03:34:21;;;;;;;3.37;2.30;;;15.30;99.90;;;;;;5071515;28;20473;-67
2022/07/13 03:36:48;;;;;;;4.87;2.87;;;15.20;99.90;;;;;;5071859;28;20547;-67
2022/07/13 03:39:14;;;;;;;2.80;2.40;;;15.30;99.90;;;;;;5071830;28;20465;-66
2022/07/13 03:41:42;;;;;;;3.30;2.40;;;15.30;99.90;;;;;;5071677;28;20537;-67
2022/07/13 03:44:12;;;;;;;3.00;2.40;;;15.20;99.90;;;;;;5071675;28;20502;-67
2022/07/13 03:46:39;;;;;;;3.87;2.57;;;15.20;99.90;;;;;;5071772;28;20941;-67
2022/07/13 03:49:06;;;;;;;2.70;2.30;;;15.20;99.90;;;;;;5071210;28;20452;-69
2022/07/13 03:51:32;;;;;;;3.33;2.50;;;15.20;99.90;;;;;;5070794;28;20448;-68
2022/07/13 03:54:00;;;;;;;3.90;2.97;;;15.30;99.90;;;;;;5071151;28;20460;-66
2022/07/13 03:56:26;;;;;;;3.60;2.67;;;15.30;99.90;;;;;;5070927;28;20462;-68
2022/07/13 03:58:55;;;;;;;3.40;2.57;;;15.20;99.90;;;;;;5070716;28;20834;-67
2022/07/13 04:01:22;;;;;;;4.87;2.90;;;15.10;99.90;;;;;;5070613;28;20455;-67
2022/07/13 04:03:49;;;;;;;3.60;2.60;;;15.10;99.90;;;;;;5070616;28;20489;-67
2022/07/13 04:06:16;;;;;;;3.53;2.80;;;15.10;99.90;;;;;;5069950;28;20515;-67
2022/07/13 04:08:43;;;;;;;4.90;2.83;;;15.10;99.90;;;;;;5074319;28;20481;-67
2022/07/13 04:11:10;;;;;;;3.73;2.70;;;15.00;99.90;;;;;;5070028;28;20801;-66
2022/07/13 04:13:37;;;;;;;3.80;2.43;;;15.00;99.90;;;;;;5070665;28;20463;-68
2022/07/13 04:16:06;;;;;;;5.17;2.97;;;15.00;99.90;;;;;;5070622;28;20455;-67
2022/07/13 04:18:32;;;;;;;6.23;2.90;;;15.10;99.90;;;;;;5070593;28;20447;-69
2022/07/13 04:20:59;;;;;;;3.77;2.90;;;15.10;99.90;;;;;;5070764;28;21018;-65
2022/07/13 04:23:26;;;;;;;4.07;3.00;;;15.20;99.90;;;;;;5071396;28;20486;-68
2022/07/13 04:25:54;;;;;;;3.10;2.57;;;15.20;99.90;;;;;;5070203;28;20546;-69
2022/07/13 04:28:20;;;;;;;3.47;2.60;;;15.20;99.90;;;;;;5070548;28;20822;-69
2022/07/13 04:30:47;;;;;;;4.03;2.60;;;15.30;99.90;;;;;;5069833;28;20542;-68
2022/07/13 04:33:16;;;;;;;5.43;3.03;;;15.30;99.90;;;;;;5070123;28;20467;-67
2022/07/13 04:35:43;;;;;;;3.40;2.70;;;15.30;99.90;;;;;;5071477;28;20454;-68
2022/07/13 04:38:09;;;;;;;3.67;2.70;;;15.40;99.90;;;;;;5070069;28;20465;-68
2022/07/13 04:40:36;;;;;;;6.27;2.97;;;15.40;99.90;;;;;;5069549;28;20443;-69
2022/07/13 04:43:03;;;;;;;4.93;3.07;;;15.40;99.90;;;;;;5070005;28;20501;-69
2022/07/13 04:45:30;;;;;;;3.60;2.83;;;15.40;99.90;;;;;;5070145;28;20854;-69
2022/07/13 04:47:57;;;;;;;6.30;3.10;;;15.50;99.90;;;;;;5069994;28;20569;-69
2022/07/13 04:50:26;;;;;;;4.87;2.70;;;15.60;99.90;;;;;;5069860;28;20443;-67
2022/07/13 04:52:53;;;;;;;4.90;3.23;;;15.60;99.90;;;;;;5069943;28;20473;-67
2022/07/13 04:55:20;;;;;;;4.30;2.57;;;15.70;99.90;;;;;;5070384;28;20446;-67
2022/07/13 04:57:46;;;;;;;3.53;2.73;;;15.60;99.90;;;;;;5070157;28;20479;-67
2022/07/13 05:00:14;;;;;;;5.47;3.43;;;15.70;99.90;;;;;;5069621;28;21193;-67
2022/07/13 05:02:41;;;;;;;2.80;2.50;;;15.70;99.90;;;;;;5069785;28;20479;-67
2022/07/13 05:05:09;;;;;;;3.20;2.57;;;15.90;99.90;;;;;;5069773;28;20500;-67
2022/07/13 05:07:37;;;;;;;3.87;2.70;;;16.00;99.90;;;;;;5069556;28;20451;-66
2022/07/13 05:10:05;;;;;;;4.70;2.97;;;16.10;99.90;;;;;;5069510;28;20455;-66
2022/07/13 05:12:34;;;;;;;4.03;3.20;;;16.10;99.90;;;;;;5069794;28;20450;-66
2022/07/13 05:15:01;;;;;;;3.83;2.57;;;16.10;99.90;;;;;;5069722;28;20506;-66
2022/07/13 05:17:27;;;;;;;4.77;2.67;;;16.20;99.90;;;;;;5069782;28;20489;-66
2022/07/13 05:19:54;;;;;;;4.10;2.77;;;16.20;99.90;;;;;;5069430;28;20447;-67
2022/07/13 05:22:21;;;;;;;3.33;2.73;;;16.20;99.90;;;;;;5069439;28;20455;-66
2022/07/13 05:24:49;;;;;;;4.30;2.83;;;16.30;99.90;;;;;;5069609;28;20854;-66
2022/07/13 05:27:16;;;;;;;4.10;2.70;;;16.40;99.90;;;;;;5069495;28;21115;-66
2022/07/13 05:29:43;;;;;;;3.73;2.40;;;16.60;99.90;;;;;;5069536;28;20455;-67
2022/07/13 05:32:09;;;;;;;3.37;2.80;;;16.70;99.90;;;;;;5069267;28;20451;-65
2022/07/13 05:34:36;;;;;;;4.00;2.70;;;17.00;99.90;;;;;;5069270;28;20467;-66
2022/07/13 05:37:03;;;;;;;5.37;3.40;;;17.30;99.90;;;;;;5063986;28;20452;-66
2022/07/13 05:39:30;;;;;;;3.20;2.27;;;17.60;99.90;;;;;;5066955;28;20445;-67
2022/07/13 05:41:58;;;;;;;3.27;2.40;;;17.90;99.90;;;;;;5072164;28;20438;-66
2022/07/13 05:44:25;;;;;;;3.50;2.70;;;18.20;99.90;;;;;;5072201;28;20874;-66
2022/07/13 05:46:52;;;;;;;5.50;2.87;;;18.40;99.90;;;;;;5069810;28;20831;-67
2022/07/13 05:49:19;;;;;;;3.70;2.60;;;18.50;99.90;;;;;;5068845;28;20457;-68
2022/07/13 05:51:46;;;;;;;4.27;2.50;;;18.60;99.90;;;;;;5072213;28;20457;-66
2022/07/13 05:54:13;;;;;;;3.67;2.10;;;18.70;99.90;;;;;;5073135;28;21192;-68
2022/07/13 05:56:40;;;;;;;3.57;1.93;;;18.70;99.90;;;;;;5072822;28;20794;-66
2022/07/13 05:59:08;;;;;;;5.40;2.07;;;18.80;99.90;;;;;;5072281;28;20447;-66
2022/07/13 06:01:35;;;;;;;3.13;2.37;;;19.00;99.90;;;;;;5071750;28;20455;-67
2022/07/13 06:04:02;;;;;;;2.63;1.90;;;19.10;99.90;;;;;;5073835;28;20485;-67
2022/07/13 06:06:29;;;;;;;3.33;1.90;;;19.30;99.90;;;;;;5073204;28;20461;-68
2022/07/13 06:08:56;;;;;;;3.37;1.87;;;19.50;99.90;;;;;;5073201;28;20451;-67
2022/07/13 06:11:23;;;;;;;2.63;2.00;;;19.70;99.90;;;;;;5073035;28;20454;-66
2022/07/13 06:13:49;;;;;;;3.50;2.20;;;19.90;99.90;;;;;;5073042;28;20472;-68
2022/07/13 06:16:18;;;;;;;3.57;1.90;;;20.20;99.90;;;;;;5072970;28;20826;-66
2022/07/13 06:18:44;;;;;;;3.03;1.80;;;20.40;99.90;;;;;;5072785;28;20451;-66
2022/07/13 06:21:11;;;;;;;2.60;1.80;;;20.60;99.90;;;;;;5073038;28;20435;-65
2022/07/13 06:23:38;;;;;;;3.10;1.97;;;20.70;99.90;;;;;;5073089;28;20490;-66
2022/07/13 06:26:05;;;;;;;2.97;1.60;;;20.80;99.90;;;;;;5073146;28;20509;-66
2022/07/13 06:28:33;;;;;;;6.47;1.93;;;20.90;99.90;;;;;;5072812;28;20451;-68
2022/07/13 06:31:00;;;;;;;4.77;1.90;;;21.00;99.90;;;;;;5072967;28;20469;-66
2022/07/13 06:33:28;;;;;;;4.70;1.93;;;21.10;99.90;;;;;;5072884;28;20989;-66
2022/07/13 06:35:55;;;;;;;2.60;1.90;;;21.40;99.90;;;;;;5072448;28;20534;-67
2022/07/13 06:38:21;;;;;;;2.80;1.97;;;21.60;99.90;;;;;;5072736;28;20485;-65
2022/07/13 06:40:49;;;;;;;3.67;1.57;;;21.80;99.90;;;;;;5072293;28;20447;-68
2022/07/13 06:43:16;;;;;;;9.23;2.03;;;22.10;99.90;;;;;;5072274;28;20482;-66
2022/07/13 06:45:43;;;;;;;2.90;2.10;;;22.20;99.90;;;;;;5072230;28;20481;-67
2022/07/13 06:48:10;;;;;;;3.77;2.03;;;22.30;99.90;;;;;;5070930;28;20512;-66
2022/07/13 06:50:38;;;;;;;4.33;2.00;;;22.10;99.90;;;;;;5072137;28;20467;-68
2022/07/13 06:53:05;;;;;;;3.83;1.97;;;22.20;99.90;;;;;;5072005;28;20480;-68
2022/07/13 06:55:33;;;;;;;4.93;2.00;;;22.10;99.90;;;;;;5072220;28;20945;-66
2022/07/13 06:58:00;;;;;;;3.30;2.00;;;22.20;99.90;;;;;;5072020;28;20466;-66
2022/07/13 07:00:27;;;;;;;3.60;2.00;;;22.00;99.90;;;;;;5071654;28;20462;-68
2022/07/13 07:02:55;;;;;;;2.80;1.97;;;21.70;99.90;;;;;;5071979;28;20451;-66
2022/07/13 07:05:22;;;;;;;3.10;1.90;;;21.50;99.90;;;;;;5071841;28;20453;-67
2022/07/13 07:07:50;;;;;;;3.53;1.90;;;21.40;99.90;;;;;;5071737;28;20941;-66
2022/07/13 07:10:17;;;;;;;2.83;1.77;;;21.30;99.90;;;;;;5071519;28;20453;-66
2022/07/13 07:12:43;;;;;;;5.23;2.20;;;21.30;99.90;;;;;;5071690;28;20462;-66
2022/07/13 07:15:11;;;;;;;2.80;1.67;;;21.30;99.90;;;;;;5071645;28;20842;-66
2022/07/13 07:17:44;;;;;;;4.20;2.10;;;21.30;99.90;;;;;;5071816;28;20780;-67
2022/07/13 07:20:12;;;;;;;4.67;1.97;;;21.40;99.90;;;;;;5071519;28;20458;-66
2022/07/13 07:22:39;;;;;;;3.10;1.60;;;21.40;99.90;;;;;;5071635;28;20443;-66
2022/07/13 07:25:08;;;;;;;3.37;1.33;;;21.40;99.90;;;;;;5071436;28;20489;-67
2022/07/13 07:27:35;;;;;;;2.87;1.70;;;21.60;99.90;;;;;;5071312;28;20447;-66
2022/07/13 07:30:03;;;;;;;2.67;1.70;;;21.60;99.90;;;;;;5071207;28;20470;-67
2022/07/13 07:32:30;;;;;;;2.93;1.20;;;21.70;99.90;;;;;;5071186;28;20448;-67
2022/07/13 07:34:56;;;;;;;3.50;1.70;;;21.80;99.90;;;;;;5071175;28;20553;-68
2022/07/13 07:37:23;;;;;;;3.07;1.47;;;21.90;99.90;;;;;;5071040;28;20471;-66
2022/07/13 07:39:51;;;;;;;3.10;1.30;;;22.10;99.90;;;;;;5070965;28;20504;-66
2022/07/13 07:42:19;;;;;;;2.20;1.37;;;22.30;99.90;;;;;;5071139;28;20447;-66
2022/07/13 07:44:46;;;;;;;4.50;1.57;;;22.50;99.90;;;;;;5071542;28;20487;-68
2022/07/13 07:47:15;;;;;;;3.73;1.80;;;22.70;99.90;;;;;;5071294;28;20454;-67
2022/07/13 07:49:42;;;;;;;2.90;1.93;;;23.10;99.90;;;;;;5071133;28;20483;-69
2022/07/13 07:52:09;;;;;;;2.40;1.30;;;23.50;99.90;;;;;;5071125;28;20443;-66
2022/07/13 07:54:36;;;;;;;3.33;1.70;;;23.80;99.90;;;;;;5071012;28;20466;-66
2022/07/13 07:57:03;;;;;;;3.27;1.90;;;24.30;99.90;;;;;;5071086;28;20451;-67
2022/07/13 07:59:31;;;;;;;2.27;1.33;;;24.90;99.90;;;;;;5070383;28;20948;-67
2022/07/13 08:01:59;;;;;;;3.65;1.40;;;25.60;99.40;;;;;;5069944;28;20449;-68
2022/07/13 08:04:25;;;;;;;3.10;1.40;;;26.30;97.60;;;;;;5070161;28;20806;-67
2022/07/13 08:06:53;;;;;;;5.20;1.30;;;26.90;98.00;;;;;;5070625;28;20964;-67
2022/07/13 08:09:20;;;;;;;3.00;1.40;;;27.60;97.20;;;;;;5070565;28;20454;-67
2022/07/13 08:11:47;;;;;;;3.27;1.10;;;27.90;95.20;;;;;;5070420;28;20458;-68
2022/07/13 08:14:13;;;;;;;3.37;1.30;;;28.40;95.10;;;;;;5070612;28;20477;-67
2022/07/13 08:16:42;;;;;;;2.17;1.20;;;28.70;93.70;;;;;;5070482;28;20448;-69
2022/07/13 08:19:08;;;;;;;2.83;1.43;;;28.80;91.50;;;;;;5070465;28;21005;-67
2022/07/13 08:21:35;;;;;;;3.33;1.40;;;29.00;93.50;;;;;;5070102;28;20451;-67
2022/07/13 08:24:02;;;;;;;3.80;1.40;;;29.30;92.00;;;;;;5070364;28;20483;-67
2022/07/13 08:26:30;;;;;;;2.33;1.50;;;29.60;91.60;;;;;;5070588;28;20444;-68
2022/07/13 08:28:58;;;;;;;1.97;1.10;;;30.00;90.10;;;;;;5070219;28;20450;-68
2022/07/13 08:31:26;;;;;;;3.00;1.70;;;30.20;89.60;;;;;;5069841;28;20962;-68
2022/07/13 08:39:38;;;;;;;2.00;1.20;;;30.80;85.50;;;;;;5007976;28;20836;-66
2022/07/13 08:42:06;;;;;;;2.40;1.20;;;30.90;83.70;;;;;;5041949;28;20466;-67
2022/07/13 08:44:33;;;;;;;5.03;1.30;;;30.90;85.00;;;;;;5069776;28;20521;-69
2022/07/13 08:47:01;;;;;;;3.40;1.50;;;30.70;83.20;;;;;;5070255;28;20526;-67
2022/07/13 08:49:29;;;;;;;2.63;1.40;;;30.70;80.10;;;;;;5070000;28;20963;-67
2022/07/13 08:51:57;;;;;;;2.13;1.07;;;30.50;81.80;;;;;;5069999;28;20455;-66
2022/07/13 08:54:24;;;;;;;4.00;1.30;;;30.60;78.90;;;;;;5070162;28;20467;-67
2022/07/13 08:56:51;;;;;;;2.27;1.10;;;30.30;79.00;;;;;;5070514;28;20521;-66
2022/07/13 08:59:18;;;;;;;3.60;1.50;;;30.00;82.90;;;;;;5070369;28;21036;-69
2022/07/13 09:01:44;;;;;;;2.77;1.27;;;30.20;79.60;;;;;;5070361;28;20948;-67
2022/07/13 09:07:35;;;;;;;2.20;1.20;;;29.20;78.30;;;;;;5070073;28;20497;-67
2022/07/13 09:10:04;;;;;;;5.43;1.60;;;28.90;82.40;;;;;;5068983;28;20459;-69
2022/07/13 09:12:31;;;;;;;2.97;1.20;;;28.70;81.60;;;;;;5070036;28;20449;-67
2022/07/13 09:15:00;;;;;;;4.03;1.30;;;28.70;80.80;;;;;;5069664;28;20482;-68
2022/07/13 09:17:30;;;;;;;4.73;1.40;;;28.60;82.60;;;;;;5069860;28;20451;-66
2022/07/13 09:19:57;;;;;;;6.40;1.60;;;28.50;82.70;;;;;;5069462;28;20991;-67
2022/07/13 09:22:24;;;;;;;2.70;1.57;;;28.20;82.70;;;;;;5069890;28;20530;-66
2022/07/13 09:24:53;;;;;;;3.57;1.50;;;28.20;83.70;;;;;;5069684;28;20482;-68
2022/07/13 09:27:21;;;;;;;4.63;1.53;;;28.20;83.00;;;;;;5069724;28;20490;-67
2022/07/13 09:29:48;;;;;;;3.30;1.70;;;28.20;81.50;;;;;;5069371;28;20451;-67
2022/07/13 09:32:15;;;;;;;3.70;1.67;;;28.40;84.40;;;;;;5069294;28;20967;-67
2022/07/13 09:34:50;;;;;;;3.27;1.50;;;28.50;80.50;;;;;;5069389;28;20470;-67
2022/07/13 09:37:18;;;;;;;4.00;1.50;;;28.50;80.10;;;;;;5069712;28;21230;-67
2022/07/13 09:40:07;;;;;;;3.10;1.60;;;28.70;83.20;;;;;;5069431;28;20941;-68
2022/07/13 09:42:35;;;;;;;2.67;1.50;;;28.90;78.30;;;;;;5069824;28;20458;-68
2022/07/13 09:47:49;;;;;;;2.20;1.30;;;28.80;76.50;;;;;;5069735;28;20796;-66
2022/07/13 09:50:18;;;;;;;2.87;1.40;;;28.90;75.70;;;;;;5069367;28;20446;-68
2022/07/13 09:52:45;;;;;;;6.03;1.50;;;29.00;77.60;;;;;;5069615;28;20485;-66
2022/07/13 09:55:19;;;;;;;10.60;1.80;;;29.10;74.50;;;;;;5069139;28;20459;-68
2022/07/13 09:57:48;;;;;;;2.73;1.33;;;29.20;74.20;;;;;;5069570;28;20440;-66
2022/07/13 10:00:17;;;;;;;5.83;1.70;;;29.30;72.90;;;;;;5068898;28;20451;-65
2022/07/13 10:02:46;;;;;;;2.77;1.40;;;29.80;70.00;;;;;;5069571;28;20461;-68
2022/07/13 10:05:14;;;;;;;3.70;1.30;;;30.70;69.80;;;;;;5069499;28;20543;-66
2022/07/13 10:07:42;;;;;;;1.77;0.77;;;31.90;62.90;;;;;;5069010;28;20453;-67
2022/07/13 10:10:11;;;;;;;2.07;0.90;;;33.00;55.40;;;;;;5068581;28;20825;-66
2022/07/13 10:12:40;;;;;;;3.80;0.90;;;33.60;56.20;;;;;;5069106;28;20533;-68
2022/07/13 10:15:08;;;;;;;2.10;1.10;;;33.70;58.30;;;;;;5069105;28;20471;-67
2022/07/13 10:17:35;;;;;;;2.90;0.80;;;34.00;51.70;;;;;;5068945;28;20449;-67
2022/07/13 10:20:10;;;;;;;2.97;1.13;;;34.20;49.20;;;;;;5068862;28;20451;-67
2022/07/13 10:22:43;;;;;;;2.40;1.20;;;33.80;50.20;;;;;;5071494;28;20894;-68
2022/07/13 10:25:09;;;;;;;2.10;1.07;;;33.90;51.20;;;;;;5072598;28;20491;-68
2022/07/13 10:27:41;;;;;;;3.20;1.30;;;34.20;53.80;;;;;;5072858;28;20804;-67
2022/07/13 10:30:10;;;;;;;4.13;1.20;;;34.80;49.50;;;;;;5072209;28;20497;-67
2022/07/13 10:32:38;;;;;;;3.27;1.10;;;34.60;47.70;;;;;;5072393;28;20457;-66
2022/07/13 10:35:08;;;;;;;3.43;0.93;;;34.60;49.00;;;;;;5072252;28;20495;-66
2022/07/13 10:38:12;;;;;;;1.97;0.87;;;35.20;48.90;;;;;;5072299;28;20549;-68
2022/07/13 10:40:40;;;;;;;2.40;1.00;;;35.80;46.80;;;;;;5072155;28;20542;-67
2022/07/13 10:43:12;;;;;;;3.77;0.80;;;36.30;44.30;;;;;;5072376;28;20550;-66
2022/07/13 10:45:44;;;;;;;1.90;0.83;;;36.70;46.10;;;;;;5072222;28;20585;-67
2022/07/13 10:48:42;;;;;;;1.90;0.70;;;36.80;45.00;;;;;;5072377;28;20451;-67
2022/07/13 10:51:18;;;;;;;2.90;0.70;;;37.30;43.10;;;;;;5072247;28;20459;-69
2022/07/13 10:54:04;;;;;;;3.00;1.00;;;37.90;43.50;;;;;;5071948;28;20976;-68
2022/07/13 10:56:31;;;;;;;2.43;0.90;;;38.30;43.90;;;;;;5072362;28;20834;-68
2022/07/13 10:59:01;;;;;;;2.07;0.97;;;38.20;46.30;;;;;;5072221;28;20534;-68
2022/07/13 11:01:37;;;;;;;1.90;0.80;;;38.40;41.10;;;;;;5071810;28;20469;-67
2022/07/13 11:04:05;;;;;;;2.90;0.80;;;38.40;38.10;;;;;;5071814;28;20499;-67
2022/07/13 11:06:32;;;;;;;1.83;0.70;;;39.00;37.50;;;;;;5071612;28;20508;-67
2022/07/13 11:09:20;;;;;;;2.00;0.90;;;39.10;34.60;;;;;;5071959;28;20447;-66
2022/07/13 11:11:48;;;;;;;2.13;0.80;;;38.10;34.20;;;;;;5071567;28;20542;-67
2022/07/13 11:14:50;;;;;;;2.47;0.90;;;37.40;36.00;;;;;;5071930;28;20477;-68
2022/07/13 11:17:23;;;;;;;2.17;0.90;;;36.00;36.00;;;;;;5071891;28;20438;-66
2022/07/13 11:19:59;;;;;;;1.93;0.60;;;35.50;38.90;;;;;;5071582;28;20541;-67
2022/07/13 11:22:26;;;;;;;2.83;1.03;;;35.90;41.40;;;;;;5071473;28;20446;-68
2022/07/13 11:25:16;;;;;;;2.43;0.70;;;36.60;40.20;;;;;;5071418;28;20494;-65
2022/07/13 11:28:05;;;;;;;4.63;0.70;;;37.20;40.20;;;;;;5071390;28;20513;-66
2022/07/13 11:30:39;;;;;;;1.90;0.70;;;37.70;36.10;;;;;;5071417;28;20454;-69
2022/07/13 11:33:11;;;;;;;5.77;0.70;;;37.80;35.40;;;;;;5070804;28;20445;-69
2022/07/13 11:35:39;;;;;;;3.40;0.77;;;38.30;37.60;;;;;;5071399;28;20435;-68
2022/07/13 11:38:08;;;;;;;5.10;0.87;;;38.80;37.20;;;;;;5071604;28;20455;-65
2022/07/13 11:40:34;;;;;;;1.60;0.70;;;38.10;32.70;;;;;;5071228;28;20443;-66
2022/07/13 11:43:03;;;;;;;1.80;0.83;;;38.00;33.20;;;;;;5071429;28;20447;-66
2022/07/13 11:45:31;;;;;;;2.00;0.77;;;38.20;34.60;;;;;;5071229;28;20491;-68
2022/07/13 11:48:01;;;;;;;2.87;0.70;;;38.70;35.00;;;;;;5070994;28;20910;-69
2022/07/13 11:50:40;;;;;;;1.73;0.83;;;38.30;33.80;;;;;;5071018;28;20497;-66
2022/07/13 11:53:07;;;;;;;2.10;0.70;;;38.10;32.10;;;;;;5070970;28;20454;-67
2022/07/13 11:55:35;;;;;;;2.43;0.80;;;38.70;36.60;;;;;;5071056;28;20439;-66
2022/07/13 11:58:02;;;;;;;1.70;0.80;;;39.00;34.50;;;;;;5070713;28;20451;-66
2022/07/13 12:00:30;;;;;;;2.07;0.80;;;39.00;33.70;;;;;;5070540;28;20462;-68
2022/07/13 12:02:57;;;;;;;2.00;0.70;;;38.60;31.40;;;;;;5070860;28;20588;-66
2022/07/13 12:05:26;;;;;;;1.80;0.60;;;38.20;31.10;;;;;;5070492;28;20479;-65
2022/07/13 12:08:04;;;;;;;2.23;0.80;;;37.80;31.10;;;;;;5071017;28;20516;-69
2022/07/13 12:10:32;;;;;;;3.80;0.70;;;37.20;31.80;;;;;;5070830;28;20455;-67
2022/07/13 12:12:59;;;;;;;1.90;0.83;;;36.90;31.00;;;;;;5070505;28;20546;-67
2022/07/13 12:15:26;;;;;;;2.30;0.80;;;36.00;30.60;;;;;;5071007;28;20444;-67
2022/07/13 12:17:53;;;;;;;2.00;0.80;;;35.50;31.60;;;;;;5070555;28;20450;-67
2022/07/13 12:20:22;;;;;;;3.50;0.90;;;35.80;33.30;;;;;;5066523;28;20452;-66
2022/07/13 12:22:51;;;;;;;1.90;0.70;;;36.20;32.40;;;;;;5070202;28;20450;-66
2022/07/13 12:25:25;;;;;;;2.23;0.83;;;36.40;31.80;;;;;;5070084;28;20467;-67
2022/07/13 12:27:52;;;;;;;2.17;0.70;;;36.60;32.90;;;;;;5070478;28;20517;-67
2022/07/13 12:30:19;;;;;;;2.97;0.70;;;36.60;31.60;;;;;;5069830;28;20447;-66
2022/07/13 12:32:56;;;;;;;1.87;0.77;;;37.00;34.20;;;;;;5070122;28;20444;-68
2022/07/13 12:35:26;;;;;;;3.10;0.80;;;37.50;31.60;;;;;;5070028;28;20849;-66
2022/07/13 12:37:55;;;;;;;2.57;0.80;;;38.10;36.50;;;;;;5070054;28;20520;-68
2022/07/13 12:40:39;;;;;;;2.43;0.80;;;38.50;31.60;;;;;;5070007;28;20459;-66
2022/07/13 12:43:15;;;;;;;2.77;0.80;;;38.70;32.90;;;;;;5069830;28;20450;-65
2022/07/13 12:45:44;;;;;;;3.67;0.97;;;39.60;34.50;;;;;;5069052;28;20486;-67
2022/07/13 12:48:15;;;;;;;1.70;0.70;;;39.90;32.10;;;;;;5069847;28;20501;-68
2022/07/13 12:50:42;;;;;;;1.97;0.77;;;40.00;32.50;;;;;;5064058;28;20439;-66
2022/07/13 12:53:10;;;;;;;1.80;0.80;;;39.50;33.10;;;;;;5070003;28;20474;-67
2022/07/13 12:55:53;;;;;;;2.30;0.80;;;38.80;29.60;;;;;;5067700;28;20463;-66
2022/07/13 12:58:21;;;;;;;2.87;0.80;;;37.70;32.50;;;;;;5066453;28;20443;-66
2022/07/13 13:00:48;;;;;;;3.80;0.90;;;37.50;33.90;;;;;;5069415;28;20462;-68
2022/07/13 13:03:15;;;;;;;1.80;0.63;;;37.30;32.90;;;;;;5069887;28;20999;-65
2022/07/13 13:05:42;;;;;;;1.90;0.90;;;37.30;34.40;;;;;;5070070;28;20479;-67